Terminal Aerodrome Forecast
Issued by NWS Wakefield, VA

Home | Current Version | Previous Version | Text Only | Print | Product List | Glossary On
Versions: 1 2 3 4 5 6 7 8 9 10 11 12 13 14
000
FTUS41 KAKQ 252337
TAFRIC
TAF
KRIC 252337Z 2600/2624 18006KT P6SM SKC
     FM261600 20010G17KT P6SM SCT050 BKN250
     FM262100 19010KT P6SM FEW050 BKN150=

USA.gov is the U.S. government's official web portal to all federal, state and local government web resources and services.